Friday, October 19, 2018, 4:02 AM EDT
Back to Local

KESN, Easton / Newman Field

Location: Easton, MD, United States Lat: 38.8
Local Time: 4:02 AM EDT ( 8:02 GMT) Lon: -76.067
Time Zone: US/Eastern Elev: 72 ft

Show me the last for .
Show Coded

Time T Td Feel RH Dir Speed Gust Alt SLP Vis Weather Sky Remarks
2018-10-19 03:55 42 40 - 93 - Calm - 30.41 - 10 CLR None
2018-10-19 03:27 41 39 - 93 - Calm - 30.41 - 10 CLR None
2018-10-19 03:06 42 40 - 91 - Calm - 30.41 - 10 CLR None
2018-10-19 02:55 42 40 - 91 - Calm - 30.41 - 10 CLR None
2018-10-19 02:28 42 39 - 91 - Calm - 30.41 - 10 CLR None
2018-10-19 02:07 42 40 - 91 - Calm - 30.42 - 10 CLR None
2018-10-19 01:55 42 40 - 91 - Calm - 30.42 - 10 CLR 6-hr Min Temp (2am): 41.9°F
6-hr Max Temp (2am): 49.1°F
24-hr Min Temp (2am): 41.9°F
24-hr Max Temp (2am): 57.6°F
2018-10-19 01:27 42 40 - 91 - Calm - 30.41 - 10 CLR None
2018-10-19 01:07 43 40 - 90 - Calm - 30.42 - 10 CLR None
2018-10-19 00:55 43 40 - 90 - Calm - 30.42 - 10 CLR None
2018-10-19 00:29 43 40 - 90 - Calm - 30.42 - 10 CLR None
2018-10-19 00:09 44 40 - 87 - Calm - 30.42 - 10 CLR None
2018-10-18 23:55 43 40 - 88 - Calm - 30.42 - 10 CLR None
2018-10-18 23:28 43 40 - 88 - Calm - 30.42 - 10 CLR None
2018-10-18 23:08 44 40 - 87 - Calm - 30.43 - 10 CLR None
2018-10-18 22:55 44 40 - 85 - Calm - 30.43 - 10 CLR None
2018-10-18 22:26 44 40 - 86 - Calm - 30.43 - 10 CLR None
2018-10-18 22:07 45 40 - 81 - Calm - 30.43 - 10 CLR None
2018-10-18 21:45 46 39 - 75 - Calm - 30.43 - 10 CLR None
2018-10-18 20:50 46 39 - 75 - Calm - 30.42 - 10 CLR None
2018-10-18 19:50 48 39 - 70 - Calm - 30.43 - 10 CLR None
2018-10-18 18:50 50 39 - 66 - Calm - 30.43 - 10 CLR None
2018-10-18 17:50 55 36 - 47 - Calm - 30.41 - 10 CLR None
2018-10-18 16:48 57 32 - 38 340° 6 - 30.41 - 10 CLR None
2018-10-18 15:45 57 32 - 38 320° 7 15 30.42 - 10 FEW120 None
2018-10-18 14:50 57 32 - 38 320° 12 17 30.42 - 10 FEW120 None
2018-10-18 13:45 57 32 - 38 280° 9 17 30.44 - 10 FEW120 None
2018-10-18 12:50 55 30 - 37 300° 9 - 30.45 - 10 SCT100 None
2018-10-18 11:54 55 30 - 37 290° 7 18 30.46 - 10 SCT070 None
2018-10-18 10:52 54 30 - 40 330° 12 21 30.46 - 10 SCT080 None
2018-10-18 09:50 52 30 - 43 320° 16 - 30.45 - 10 SCT060 None
2018-10-18 08:50 50 28 44 43 320° 14 18 30.44 - 10 BKN040 None
2018-10-18 07:50 48 28 44 45 340° 9 - 30.42 - 10 BKN060 None
2018-10-18 06:50 46 28 44 49 340° 6 - 30.39 - 10 FEW060 None
2018-10-18 05:50 48 28 44 45 360° 9 - 30.37 - 10 SCT060 None
2018-10-18 05:46 50 30 47 45 10° 8 - 30.37 - 10 BKN060 None
2018-10-18 05:26 49 32 45 51 20° 9 - 30.37 - 10 BKN060 None
2018-10-18 05:08 49 33 47 53 30° 6 - 30.36 - 10 SCT060 None
2018-10-18 04:55 51 31 - 45 20° 9 - 30.35 - 10 SCT060 None
2018-10-18 04:28 52 28 - 39 340° 12 21 30.34 - 10 BKN060 None
2018-10-18 04:07 52 27 - 37 340° 14 28 30.33 - 10 CLR None

Support USWX by starting your Amazon purchase here.